sensor_id;sensor_type;location;lat;lon;timestamp;temperature;humidity
67799;SHT30;54596;43.216;27.904;2022-09-09T00:00:43;19.75;74.52
67799;SHT30;54596;43.216;27.904;2022-09-09T00:03:18;19.75;74.36
67799;SHT30;54596;43.216;27.904;2022-09-09T00:11:30;19.75;74.35
67799;SHT30;54596;43.216;27.904;2022-09-09T00:13:59;19.74;74.38
67799;SHT30;54596;43.216;27.904;2022-09-09T00:16:27;19.74;74.26
67799;SHT30;54596;43.216;27.904;2022-09-09T00:21:39;19.67;74.54
67799;SHT30;54596;43.216;27.904;2022-09-09T00:26:54;19.60;74.95
67799;SHT30;54596;43.216;27.904;2022-09-09T00:29:35;19.60;74.96
67799;SHT30;54596;43.216;27.904;2022-09-09T00:32:16;19.57;74.82
67799;SHT30;54596;43.216;27.904;2022-09-09T00:34:55;19.58;75.05
67799;SHT30;54596;43.216;27.904;2022-09-09T00:37:24;19.51;74.98
67799;SHT30;54596;43.216;27.904;2022-09-09T00:39:53;19.50;74.91
67799;SHT30;54596;43.216;27.904;2022-09-09T00:42:41;19.51;74.92
67799;SHT30;54596;43.216;27.904;2022-09-09T00:47:57;19.51;74.87
67799;SHT30;54596;43.216;27.904;2022-09-09T00:50:29;19.49;74.98
67799;SHT30;54596;43.216;27.904;2022-09-09T00:58:07;19.44;75.44
67799;SHT30;54596;43.216;27.904;2022-09-09T01:04:07;19.37;75.46
67799;SHT30;54596;43.216;27.904;2022-09-09T01:06:18;19.38;75.50
67799;SHT30;54596;43.216;27.904;2022-09-09T01:14:16;19.36;75.72
67799;SHT30;54596;43.216;27.904;2022-09-09T01:16:46;19.31;75.79
67799;SHT30;54596;43.216;27.904;2022-09-09T01:19:24;19.30;75.79
67799;SHT30;54596;43.216;27.904;2022-09-09T01:22:03;19.26;75.73
67799;SHT30;54596;43.216;27.904;2022-09-09T01:24:42;19.24;75.87
67799;SHT30;54596;43.216;27.904;2022-09-09T01:27:12;19.22;75.83
67799;SHT30;54596;43.216;27.904;2022-09-09T01:29:39;19.22;75.75
67799;SHT30;54596;43.216;27.904;2022-09-09T01:32:42;19.16;75.98
67799;SHT30;54596;43.216;27.904;2022-09-09T01:35:27;19.18;76.06
67799;SHT30;54596;43.216;27.904;2022-09-09T01:37:55;19.12;76.18
67799;SHT30;54596;43.216;27.904;2022-09-09T01:40:21;19.08;76.24
67799;SHT30;54596;43.216;27.904;2022-09-09T01:42:47;19.05;76.36
67799;SHT30;54596;43.216;27.904;2022-09-09T01:45:12;19.02;76.41
67799;SHT30;54596;43.216;27.904;2022-09-09T01:47:38;19.02;76.50
67799;SHT30;54596;43.216;27.904;2022-09-09T01:50:04;18.98;76.66
67799;SHT30;54596;43.216;27.904;2022-09-09T01:52:31;18.98;76.94
67799;SHT30;54596;43.216;27.904;2022-09-09T01:54:57;18.92;77.10
67799;SHT30;54596;43.216;27.904;2022-09-09T01:57:33;18.92;77.08
67799;SHT30;54596;43.216;27.904;2022-09-09T02:00:13;18.95;77.15
67799;SHT30;54596;43.216;27.904;2022-09-09T02:08:09;18.87;77.63
67799;SHT30;54596;43.216;27.904;2022-09-09T02:13:17;18.81;77.73
67799;SHT30;54596;43.216;27.904;2022-09-09T02:15:56;18.81;78.00
67799;SHT30;54596;43.216;27.904;2022-09-09T02:18:30;18.78;78.12
67799;SHT30;54596;43.216;27.904;2022-09-09T02:20:58;18.75;78.39
67799;SHT30;54596;43.216;27.904;2022-09-09T02:23:25;18.72;78.53
67799;SHT30;54596;43.216;27.904;2022-09-09T02:25:51;18.69;78.56
67799;SHT30;54596;43.216;27.904;2022-09-09T02:28:20;18.69;78.49
67799;SHT30;54596;43.216;27.904;2022-09-09T02:30:48;18.68;78.32
67799;SHT30;54596;43.216;27.904;2022-09-09T02:33:19;18.68;78.47
67799;SHT30;54596;43.216;27.904;2022-09-09T02:35:46;18.64;78.64
67799;SHT30;54596;43.216;27.904;2022-09-09T02:38:13;18.60;78.76
67799;SHT30;54596;43.216;27.904;2022-09-09T02:40:40;18.64;78.83
67799;SHT30;54596;43.216;27.904;2022-09-09T02:43:06;18.68;78.67
67799;SHT30;54596;43.216;27.904;2022-09-09T02:45:36;18.68;78.68
67799;SHT30;54596;43.216;27.904;2022-09-09T02:48:27;18.65;78.55
67799;SHT30;54596;43.216;27.904;2022-09-09T02:51:08;18.64;78.95
67799;SHT30;54596;43.216;27.904;2022-09-09T02:56:17;18.58;79.26
67799;SHT30;54596;43.216;27.904;2022-09-09T02:58:44;18.56;79.62
67799;SHT30;54596;43.216;27.904;2022-09-09T03:01:09;18.60;79.51
67799;SHT30;54596;43.216;27.904;2022-09-09T03:03:35;18.61;79.27
67799;SHT30;54596;43.216;27.904;2022-09-09T03:06:01;18.56;79.53
67799;SHT30;54596;43.216;27.904;2022-09-09T03:08:26;18.61;79.22
67799;SHT30;54596;43.216;27.904;2022-09-09T03:10:54;18.54;79.69
67799;SHT30;54596;43.216;27.904;2022-09-09T03:13:20;18.51;80.05
67799;SHT30;54596;43.216;27.904;2022-09-09T03:15:47;18.53;79.76
67799;SHT30;54596;43.216;27.904;2022-09-09T03:18:13;18.51;80.05
67799;SHT30;54596;43.216;27.904;2022-09-09T03:20:39;18.49;79.82
67799;SHT30;54596;43.216;27.904;2022-09-09T03:23:04;18.47;80.17
67799;SHT30;54596;43.216;27.904;2022-09-09T03:25:29;18.49;80.31
67799;SHT30;54596;43.216;27.904;2022-09-09T03:27:55;18.51;80.12
67799;SHT30;54596;43.216;27.904;2022-09-09T03:30:22;18.51;79.94
67799;SHT30;54596;43.216;27.904;2022-09-09T03:32:48;18.47;80.36
67799;SHT30;54596;43.216;27.904;2022-09-09T03:35:14;18.56;80.26
67799;SHT30;54596;43.216;27.904;2022-09-09T03:37:42;18.56;80.02
67799;SHT30;54596;43.216;27.904;2022-09-09T03:40:08;18.57;80.16
67799;SHT30;54596;43.216;27.904;2022-09-09T03:42:35;18.58;80.13
67799;SHT30;54596;43.216;27.904;2022-09-09T03:45:06;18.57;80.33
67799;SHT30;54596;43.216;27.904;2022-09-09T03:47:33;18.56;80.44
67799;SHT30;54596;43.216;27.904;2022-09-09T03:49:58;18.56;80.23
67799;SHT30;54596;43.216;27.904;2022-09-09T03:52:24;18.57;80.48
67799;SHT30;54596;43.216;27.904;2022-09-09T03:54:52;18.60;80.43
67799;SHT30;54596;43.216;27.904;2022-09-09T03:57:18;18.58;80.55
67799;SHT30;54596;43.216;27.904;2022-09-09T03:59:44;18.61;80.42
67799;SHT30;54596;43.216;27.904;2022-09-09T04:02:09;18.64;80.22
67799;SHT30;54596;43.216;27.904;2022-09-09T04:04:35;18.65;80.33
67799;SHT30;54596;43.216;27.904;2022-09-09T04:07:01;18.68;80.12
67799;SHT30;54596;43.216;27.904;2022-09-09T04:09:27;18.67;80.31
67799;SHT30;54596;43.216;27.904;2022-09-09T04:11:52;18.68;80.24
67799;SHT30;54596;43.216;27.904;2022-09-09T04:14:19;18.71;80.38
67799;SHT30;54596;43.216;27.904;2022-09-09T04:16:45;18.74;80.18
67799;SHT30;54596;43.216;27.904;2022-09-09T04:19:12;18.75;80.48
67799;SHT30;54596;43.216;27.904;2022-09-09T04:21:40;18.77;80.39
67799;SHT30;54596;43.216;27.904;2022-09-09T04:24:09;18.85;80.54
67799;SHT30;54596;43.216;27.904;2022-09-09T04:26:35;18.87;80.47
67799;SHT30;54596;43.216;27.904;2022-09-09T04:29:04;18.91;80.40
67799;SHT30;54596;43.216;27.904;2022-09-09T04:31:33;18.95;80.45
67799;SHT30;54596;43.216;27.904;2022-09-09T04:33:59;19.01;80.31
67799;SHT30;54596;43.216;27.904;2022-09-09T04:36:30;19.08;80.28
67799;SHT30;54596;43.216;27.904;2022-09-09T04:38:57;19.11;80.30
67799;SHT30;54596;43.216;27.904;2022-09-09T04:41:22;19.12;80.57
67799;SHT30;54596;43.216;27.904;2022-09-09T04:43:48;19.16;80.59
67799;SHT30;54596;43.216;27.904;2022-09-09T04:46:13;19.23;80.54
67799;SHT30;54596;43.216;27.904;2022-09-09T04:48:40;19.30;80.15
67799;SHT30;54596;43.216;27.904;2022-09-09T04:51:08;19.34;79.98
67799;SHT30;54596;43.216;27.904;2022-09-09T04:53:34;19.49;79.98
67799;SHT30;54596;43.216;27.904;2022-09-09T04:56:05;19.57;79.55
67799;SHT30;54596;43.216;27.904;2022-09-09T04:58:31;19.67;79.14
67799;SHT30;54596;43.216;27.904;2022-09-09T05:01:08;19.74;79.19
67799;SHT30;54596;43.216;27.904;2022-09-09T05:03:34;19.82;79.04
67799;SHT30;54596;43.216;27.904;2022-09-09T05:06:14;19.83;79.37
67799;SHT30;54596;43.216;27.904;2022-09-09T05:08:41;19.92;78.92
67799;SHT30;54596;43.216;27.904;2022-09-09T05:11:27;19.98;78.55
67799;SHT30;54596;43.216;27.904;2022-09-09T05:13:53;20.09;78.76
67799;SHT30;54596;43.216;27.904;2022-09-09T05:16:20;20.17;78.74
67799;SHT30;54596;43.216;27.904;2022-09-09T05:18:46;20.27;78.17
67799;SHT30;54596;43.216;27.904;2022-09-09T05:21:13;20.37;78.05
67799;SHT30;54596;43.216;27.904;2022-09-09T05:23:39;20.50;77.61
67799;SHT30;54596;43.216;27.904;2022-09-09T05:26:06;20.63;77.58
67799;SHT30;54596;43.216;27.904;2022-09-09T05:28:34;20.74;77.41
67799;SHT30;54596;43.216;27.904;2022-09-09T05:31:08;20.94;76.91
67799;SHT30;54596;43.216;27.904;2022-09-09T05:33:35;21.16;76.32
67799;SHT30;54596;43.216;27.904;2022-09-09T05:36:06;21.37;75.99
67799;SHT30;54596;43.216;27.904;2022-09-09T05:38:33;21.57;75.17
67799;SHT30;54596;43.216;27.904;2022-09-09T05:40:59;21.85;74.63
67799;SHT30;54596;43.216;27.904;2022-09-09T05:43:26;23.41;71.26
67799;SHT30;54596;43.216;27.904;2022-09-09T05:46:22;26.76;61.07
67799;SHT30;54596;43.216;27.904;2022-09-09T05:48:49;28.59;56.22
67799;SHT30;54596;43.216;27.904;2022-09-09T05:51:23;30.14;53.36
67799;SHT30;54596;43.216;27.904;2022-09-09T05:53:50;30.87;51.08
67799;SHT30;54596;43.216;27.904;2022-09-09T05:56:18;32.14;48.66
67799;SHT30;54596;43.216;27.904;2022-09-09T05:58:45;32.71;47.39
67799;SHT30;54596;43.216;27.904;2022-09-09T06:01:16;33.88;45.53
67799;SHT30;54596;43.216;27.904;2022-09-09T06:03:43;34.64;44.24
67799;SHT30;54596;43.216;27.904;2022-09-09T06:06:14;36.02;42.47
67799;SHT30;54596;43.216;27.904;2022-09-09T06:08:42;36.00;41.93
67799;SHT30;54596;43.216;27.904;2022-09-09T06:11:18;34.59;44.05
67799;SHT30;54596;43.216;27.904;2022-09-09T06:13:43;34.06;44.89
67799;SHT30;54596;43.216;27.904;2022-09-09T06:16:13;34.39;44.32
67799;SHT30;54596;43.216;27.904;2022-09-09T06:18:40;34.06;45.16
67799;SHT30;54596;43.216;27.904;2022-09-09T06:21:17;33.62;46.30
67799;SHT30;54596;43.216;27.904;2022-09-09T06:23:43;33.92;46.08
67799;SHT30;54596;43.216;27.904;2022-09-09T06:26:14;33.82;45.84
67799;SHT30;54596;43.216;27.904;2022-09-09T06:28:41;34.48;44.77
67799;SHT30;54596;43.216;27.904;2022-09-09T06:31:10;34.24;44.58
67799;SHT30;54596;43.216;27.904;2022-09-09T06:33:41;33.50;46.40
67799;SHT30;54596;43.216;27.904;2022-09-09T06:36:14;33.93;46.12
67799;SHT30;54596;43.216;27.904;2022-09-09T06:38:41;34.37;45.53
67799;SHT30;54596;43.216;27.904;2022-09-09T06:41:08;36.05;42.73
67799;SHT30;54596;43.216;27.904;2022-09-09T06:43:35;35.20;44.45
67799;SHT30;54596;43.216;27.904;2022-09-09T06:48:36;35.19;44.08
67799;SHT30;54596;43.216;27.904;2022-09-09T06:51:07;34.47;44.63
67799;SHT30;54596;43.216;27.904;2022-09-09T06:53:34;35.44;43.69
67799;SHT30;54596;43.216;27.904;2022-09-09T06:56:18;34.52;46.02
67799;SHT30;54596;43.216;27.904;2022-09-09T06:58:44;34.96;45.12
67799;SHT30;54596;43.216;27.904;2022-09-09T07:01:12;34.67;45.56
67799;SHT30;54596;43.216;27.904;2022-09-09T07:03:38;35.27;44.68
67799;SHT30;54596;43.216;27.904;2022-09-09T07:06:04;34.27;46.46
67799;SHT30;54596;43.216;27.904;2022-09-09T07:08:30;34.59;45.86
67799;SHT30;54596;43.216;27.904;2022-09-09T07:11:05;34.75;45.66
67799;SHT30;54596;43.216;27.904;2022-09-09T07:13:32;35.99;44.17
67799;SHT30;54596;43.216;27.904;2022-09-09T07:16:08;36.13;43.20
67799;SHT30;54596;43.216;27.904;2022-09-09T07:18:34;35.81;44.05
67799;SHT30;54596;43.216;27.904;2022-09-09T07:21:01;35.34;45.08
67799;SHT30;54596;43.216;27.904;2022-09-09T07:23:28;34.78;45.77
67799;SHT30;54596;43.216;27.904;2022-09-09T07:25:54;36.89;42.68
67799;SHT30;54596;43.216;27.904;2022-09-09T07:28:22;36.68;42.77
67799;SHT30;54596;43.216;27.904;2022-09-09T07:30:59;35.82;44.10
67799;SHT30;54596;43.216;27.904;2022-09-09T07:33:27;35.19;44.68
67799;SHT30;54596;43.216;27.904;2022-09-09T07:36:02;35.21;45.64
67799;SHT30;54596;43.216;27.904;2022-09-09T07:38:28;37.44;41.86
67799;SHT30;54596;43.216;27.904;2022-09-09T07:41:03;37.91;41.26
67799;SHT30;54596;43.216;27.904;2022-09-09T07:43:29;37.57;41.24
67799;SHT30;54596;43.216;27.904;2022-09-09T07:45:59;37.75;40.27
67799;SHT30;54596;43.216;27.904;2022-09-09T07:48:26;37.88;40.32
67799;SHT30;54596;43.216;27.904;2022-09-09T07:50:52;38.88;38.99
67799;SHT30;54596;43.216;27.904;2022-09-09T07:53:17;37.71;41.38
67799;SHT30;54596;43.216;27.904;2022-09-09T07:55:45;38.26;40.20
67799;SHT30;54596;43.216;27.904;2022-09-09T07:58:10;38.57;38.23
67799;SHT30;54596;43.216;27.904;2022-09-09T08:00:36;38.09;36.40
67799;SHT30;54596;43.216;27.904;2022-09-09T08:03:01;38.09;36.52
67799;SHT30;54596;43.216;27.904;2022-09-09T08:05:27;39.13;34.52
67799;SHT30;54596;43.216;27.904;2022-09-09T08:07:52;37.71;34.26
67799;SHT30;54596;43.216;27.904;2022-09-09T08:10:18;36.91;35.68
67799;SHT30;54596;43.216;27.904;2022-09-09T08:12:44;37.77;36.03
67799;SHT30;54596;43.216;27.904;2022-09-09T08:15:10;37.88;37.51
67799;SHT30;54596;43.216;27.904;2022-09-09T08:17:36;37.03;36.44
67799;SHT30;54596;43.216;27.904;2022-09-09T08:20:03;36.48;35.29
67799;SHT30;54596;43.216;27.904;2022-09-09T08:22:31;35.64;36.85
67799;SHT30;54596;43.216;27.904;2022-09-09T08:24:57;34.59;36.97
67799;SHT30;54596;43.216;27.904;2022-09-09T08:27:23;32.90;39.55
67799;SHT30;54596;43.216;27.904;2022-09-09T08:29:49;31.97;43.60
67799;SHT30;54596;43.216;27.904;2022-09-09T08:32:15;31.86;45.06
67799;SHT30;54596;43.216;27.904;2022-09-09T08:34:41;31.35;46.97
67799;SHT30;54596;43.216;27.904;2022-09-09T08:37:07;30.51;49.59
67799;SHT30;54596;43.216;27.904;2022-09-09T08:39:32;30.13;50.58
67799;SHT30;54596;43.216;27.904;2022-09-09T08:44:38;29.44;55.36
67799;SHT30;54596;43.216;27.904;2022-09-09T08:52:29;29.20;55.64
67799;SHT30;54596;43.216;27.904;2022-09-09T08:55:20;28.21;58.70
67799;SHT30;54596;43.216;27.904;2022-09-09T08:57:50;27.66;59.99
67799;SHT30;54596;43.216;27.904;2022-09-09T09:00:17;27.29;61.19
67799;SHT30;54596;43.216;27.904;2022-09-09T09:02:53;27.16;62.08
67799;SHT30;54596;43.216;27.904;2022-09-09T09:05:56;26.99;61.80
67799;SHT30;54596;43.216;27.904;2022-09-09T09:08:48;26.74;61.93
67799;SHT30;54596;43.216;27.904;2022-09-09T09:11:15;26.27;63.22
67799;SHT30;54596;43.216;27.904;2022-09-09T09:18:51;26.26;64.43
67799;SHT30;54596;43.216;27.904;2022-09-09T09:24:21;26.04;65.80
67799;SHT30;54596;43.216;27.904;2022-09-09T09:26:50;25.67;65.83
67799;SHT30;54596;43.216;27.904;2022-09-09T09:29:17;25.61;66.28
67799;SHT30;54596;43.216;27.904;2022-09-09T09:31:59;25.68;66.27
67799;SHT30;54596;43.216;27.904;2022-09-09T09:34:27;25.71;66.30
67799;SHT30;54596;43.216;27.904;2022-09-09T09:36:57;25.65;66.02
67799;SHT30;54596;43.216;27.904;2022-09-09T09:39:29;25.57;65.23
67799;SHT30;54596;43.216;27.904;2022-09-09T09:41:55;25.45;65.82
67799;SHT30;54596;43.216;27.904;2022-09-09T09:44:32;25.51;67.01
67799;SHT30;54596;43.216;27.904;2022-09-09T09:47:14;25.47;66.62
67799;SHT30;54596;43.216;27.904;2022-09-09T09:52:24;25.26;66.64
67799;SHT30;54596;43.216;27.904;2022-09-09T09:54:50;25.35;66.89
67799;SHT30;54596;43.216;27.904;2022-09-09T09:57:18;25.35;66.96
67799;SHT30;54596;43.216;27.904;2022-09-09T09:59:48;25.00;68.67
67799;SHT30;54596;43.216;27.904;2022-09-09T10:04:39;24.78;68.70
67799;SHT30;54596;43.216;27.904;2022-09-09T10:07:21;24.89;69.44
67799;SHT30;54596;43.216;27.904;2022-09-09T10:09:54;25.02;69.45
67799;SHT30;54596;43.216;27.904;2022-09-09T10:12:39;24.99;69.56
67799;SHT30;54596;43.216;27.904;2022-09-09T10:18:18;24.86;69.71
67799;SHT30;54596;43.216;27.904;2022-09-09T10:31:25;24.83;69.41
67799;SHT30;54596;43.216;27.904;2022-09-09T10:34:01;24.88;69.67
67799;SHT30;54596;43.216;27.904;2022-09-09T10:36:29;24.90;69.83
67799;SHT30;54596;43.216;27.904;2022-09-09T10:39:19;24.86;68.55
67799;SHT30;54596;43.216;27.904;2022-09-09T10:42:05;24.79;70.39
67799;SHT30;54596;43.216;27.904;2022-09-09T10:47:45;24.85;69.95
67799;SHT30;54596;43.216;27.904;2022-09-09T10:55:52;25.03;69.92
67799;SHT30;54596;43.216;27.904;2022-09-09T10:58:32;25.00;70.08
67799;SHT30;54596;43.216;27.904;2022-09-09T11:01:09;25.03;70.03
67799;SHT30;54596;43.216;27.904;2022-09-09T11:03:37;25.15;70.01
67799;SHT30;54596;43.216;27.904;2022-09-09T11:06:07;25.00;69.41
67799;SHT30;54596;43.216;27.904;2022-09-09T11:08:38;25.05;69.38
67799;SHT30;54596;43.216;27.904;2022-09-09T11:16:52;25.03;69.98
67799;SHT30;54596;43.216;27.904;2022-09-09T11:19:34;24.78;71.07
67799;SHT30;54596;43.216;27.904;2022-09-09T11:22:03;24.88;71.10
67799;SHT30;54596;43.216;27.904;2022-09-09T11:24:40;24.92;68.96
67799;SHT30;54596;43.216;27.904;2022-09-09T11:27:50;24.95;69.81
67799;SHT30;54596;43.216;27.904;2022-09-09T11:30:36;24.90;70.33
67799;SHT30;54596;43.216;27.904;2022-09-09T11:41:08;24.71;72.00
67799;SHT30;54596;43.216;27.904;2022-09-09T11:46:10;24.79;71.17
67799;SHT30;54596;43.216;27.904;2022-09-09T11:48:37;24.76;71.93
67799;SHT30;54596;43.216;27.904;2022-09-09T11:51:09;24.71;72.11
67799;SHT30;54596;43.216;27.904;2022-09-09T11:53:47;24.60;72.64
67799;SHT30;54596;43.216;27.904;2022-09-09T11:56:44;24.58;72.70
67799;SHT30;54596;43.216;27.904;2022-09-09T12:02:13;24.51;73.40
67799;SHT30;54596;43.216;27.904;2022-09-09T12:10:04;24.43;73.47
67799;SHT30;54596;43.216;27.904;2022-09-09T12:12:38;24.58;73.40
67799;SHT30;54596;43.216;27.904;2022-09-09T12:17:41;24.72;73.20
67799;SHT30;54596;43.216;27.904;2022-09-09T12:28:54;24.58;70.79
67799;SHT30;54596;43.216;27.904;2022-09-09T12:34:11;24.65;71.75
67799;SHT30;54596;43.216;27.904;2022-09-09T12:36:40;24.82;71.45
67799;SHT30;54596;43.216;27.904;2022-09-09T12:39:19;24.85;71.18
67799;SHT30;54596;43.216;27.904;2022-09-09T12:41:53;24.83;71.45
67799;SHT30;54596;43.216;27.904;2022-09-09T12:44:24;24.83;70.79
67799;SHT30;54596;43.216;27.904;2022-09-09T12:46:51;24.75;71.67
67799;SHT30;54596;43.216;27.904;2022-09-09T12:49:31;24.61;72.12
67799;SHT30;54596;43.216;27.904;2022-09-09T12:52:02;24.55;71.60
67799;SHT30;54596;43.216;27.904;2022-09-09T12:54:31;24.67;72.01
67799;SHT30;54596;43.216;27.904;2022-09-09T12:56:58;24.76;71.47
67799;SHT30;54596;43.216;27.904;2022-09-09T12:59:26;24.82;71.12
67799;SHT30;54596;43.216;27.904;2022-09-09T13:01:58;24.78;71.68
67799;SHT30;54596;43.216;27.904;2022-09-09T13:04:24;24.75;71.86
67799;SHT30;54596;43.216;27.904;2022-09-09T13:06:50;24.81;71.53
67799;SHT30;54596;43.216;27.904;2022-09-09T13:09:17;24.71;71.18
67799;SHT30;54596;43.216;27.904;2022-09-09T13:11:48;24.69;71.51
67799;SHT30;54596;43.216;27.904;2022-09-09T13:14:46;24.65;71.76
67799;SHT30;54596;43.216;27.904;2022-09-09T13:17:19;24.47;71.75
67799;SHT30;54596;43.216;27.904;2022-09-09T13:19:46;24.62;71.86
67799;SHT30;54596;43.216;27.904;2022-09-09T13:22:14;24.54;71.48
67799;SHT30;54596;43.216;27.904;2022-09-09T13:24:40;24.54;72.00
67799;SHT30;54596;43.216;27.904;2022-09-09T13:27:28;24.61;72.35
67799;SHT30;54596;43.216;27.904;2022-09-09T13:29:55;24.69;71.68
67799;SHT30;54596;43.216;27.904;2022-09-09T13:32:22;24.62;72.20
67799;SHT30;54596;43.216;27.904;2022-09-09T13:35:01;24.55;72.85
67799;SHT30;54596;43.216;27.904;2022-09-09T13:37:35;24.58;72.14
67799;SHT30;54596;43.216;27.904;2022-09-09T13:40:02;24.47;72.47
67799;SHT30;54596;43.216;27.904;2022-09-09T13:42:29;24.43;73.23
67799;SHT30;54596;43.216;27.904;2022-09-09T13:44:57;24.36;73.43
67799;SHT30;54596;43.216;27.904;2022-09-09T13:47:33;24.31;73.54
67799;SHT30;54596;43.216;27.904;2022-09-09T13:50:19;24.19;73.78
67799;SHT30;54596;43.216;27.904;2022-09-09T13:52:49;24.23;73.64
67799;SHT30;54596;43.216;27.904;2022-09-09T13:55:17;24.12;74.04
67799;SHT30;54596;43.216;27.904;2022-09-09T13:58:00;24.10;74.47
67799;SHT30;54596;43.216;27.904;2022-09-09T14:00:26;24.10;74.18
67799;SHT30;54596;43.216;27.904;2022-09-09T14:02:53;24.09;73.99
67799;SHT30;54596;43.216;27.904;2022-09-09T14:05:20;24.19;74.11
67799;SHT30;54596;43.216;27.904;2022-09-09T14:07:48;24.30;73.85
67799;SHT30;54596;43.216;27.904;2022-09-09T14:10:13;24.19;74.20
67799;SHT30;54596;43.216;27.904;2022-09-09T14:12:39;24.16;73.93
67799;SHT30;54596;43.216;27.904;2022-09-09T14:15:06;24.09;73.94
67799;SHT30;54596;43.216;27.904;2022-09-09T14:17:33;24.13;74.45
67799;SHT30;54596;43.216;27.904;2022-09-09T14:19:59;24.14;73.67
67799;SHT30;54596;43.216;27.904;2022-09-09T14:22:25;24.10;73.90
67799;SHT30;54596;43.216;27.904;2022-09-09T14:24:50;24.08;73.95
67799;SHT30;54596;43.216;27.904;2022-09-09T14:27:16;24.10;73.71
67799;SHT30;54596;43.216;27.904;2022-09-09T14:29:42;24.16;73.59
67799;SHT30;54596;43.216;27.904;2022-09-09T14:32:09;24.20;73.35
67799;SHT30;54596;43.216;27.904;2022-09-09T14:34:35;24.09;73.49
67799;SHT30;54596;43.216;27.904;2022-09-09T14:37:01;24.10;73.28
67799;SHT30;54596;43.216;27.904;2022-09-09T14:39:26;24.10;73.36
67799;SHT30;54596;43.216;27.904;2022-09-09T14:41:52;24.09;73.53
67799;SHT30;54596;43.216;27.904;2022-09-09T14:44:17;24.10;73.42
67799;SHT30;54596;43.216;27.904;2022-09-09T14:46:44;24.01;73.30
67799;SHT30;54596;43.216;27.904;2022-09-09T14:49:09;24.01;73.92
67799;SHT30;54596;43.216;27.904;2022-09-09T14:51:38;23.99;73.74
67799;SHT30;54596;43.216;27.904;2022-09-09T14:54:04;24.01;74.20
67799;SHT30;54596;43.216;27.904;2022-09-09T14:56:31;24.03;73.53
67799;SHT30;54596;43.216;27.904;2022-09-09T14:58:58;23.95;73.95
67799;SHT30;54596;43.216;27.904;2022-09-09T15:01:26;23.92;74.08
67799;SHT30;54596;43.216;27.904;2022-09-09T15:04:00;23.88;74.34
67799;SHT30;54596;43.216;27.904;2022-09-09T15:06:28;23.81;74.41
67799;SHT30;54596;43.216;27.904;2022-09-09T15:08:54;23.82;74.47
67799;SHT30;54596;43.216;27.904;2022-09-09T15:11:23;23.79;73.24
67799;SHT30;54596;43.216;27.904;2022-09-09T15:13:51;23.82;73.34
67799;SHT30;54596;43.216;27.904;2022-09-09T15:16:21;23.81;73.69
67799;SHT30;54596;43.216;27.904;2022-09-09T15:18:51;23.76;73.96
67799;SHT30;54596;43.216;27.904;2022-09-09T15:21:20;23.72;73.73
67799;SHT30;54596;43.216;27.904;2022-09-09T15:23:46;23.69;73.62
67799;SHT30;54596;43.216;27.904;2022-09-09T15:26:17;23.67;73.47
67799;SHT30;54596;43.216;27.904;2022-09-09T15:28:44;23.69;72.98
67799;SHT30;54596;43.216;27.904;2022-09-09T15:31:24;23.69;72.30
67799;SHT30;54596;43.216;27.904;2022-09-09T15:33:55;23.67;71.56
67799;SHT30;54596;43.216;27.904;2022-09-09T15:36:30;23.64;71.76
67799;SHT30;54596;43.216;27.904;2022-09-09T15:38:58;23.64;71.40
67799;SHT30;54596;43.216;27.904;2022-09-09T15:41:23;23.58;71.33
67799;SHT30;54596;43.216;27.904;2022-09-09T15:43:51;23.55;71.74
67799;SHT30;54596;43.216;27.904;2022-09-09T15:48:43;23.53;72.78
67799;SHT30;54596;43.216;27.904;2022-09-09T15:51:09;23.51;72.77
67799;SHT30;54596;43.216;27.904;2022-09-09T15:53:36;23.47;73.24
67799;SHT30;54596;43.216;27.904;2022-09-09T15:56:05;23.39;73.57
67799;SHT30;54596;43.216;27.904;2022-09-09T15:58:32;23.33;73.88
67799;SHT30;54596;43.216;27.904;2022-09-09T16:01:09;23.27;73.92
67799;SHT30;54596;43.216;27.904;2022-09-09T16:03:41;23.28;73.20
67799;SHT30;54596;43.216;27.904;2022-09-09T16:06:08;23.26;73.37
67799;SHT30;54596;43.216;27.904;2022-09-09T16:08:44;23.24;73.54
67799;SHT30;54596;43.216;27.904;2022-09-09T16:11:14;23.20;73.81
67799;SHT30;54596;43.216;27.904;2022-09-09T16:13:41;23.17;73.54
67799;SHT30;54596;43.216;27.904;2022-09-09T16:16:08;23.16;73.62
67799;SHT30;54596;43.216;27.904;2022-09-09T16:18:36;23.13;74.02
67799;SHT30;54596;43.216;27.904;2022-09-09T16:21:02;23.15;74.78
67799;SHT30;54596;43.216;27.904;2022-09-09T16:23:28;23.17;74.39
67799;SHT30;54596;43.216;27.904;2022-09-09T16:25:57;23.12;74.18
67799;SHT30;54596;43.216;27.904;2022-09-09T16:28:22;23.06;74.35
67799;SHT30;54596;43.216;27.904;2022-09-09T16:30:48;23.09;74.34
67799;SHT30;54596;43.216;27.904;2022-09-09T16:33:15;23.12;74.34
67799;SHT30;54596;43.216;27.904;2022-09-09T16:35:41;23.09;74.50
67799;SHT30;54596;43.216;27.904;2022-09-09T16:38:06;23.07;74.45
67799;SHT30;54596;43.216;27.904;2022-09-09T16:40:38;23.03;74.81
67799;SHT30;54596;43.216;27.904;2022-09-09T16:43:07;22.98;75.12
67799;SHT30;54596;43.216;27.904;2022-09-09T16:45:32;22.98;74.90
67799;SHT30;54596;43.216;27.904;2022-09-09T16:47:59;23.00;74.96
67799;SHT30;54596;43.216;27.904;2022-09-09T16:50:25;22.99;75.14
67799;SHT30;54596;43.216;27.904;2022-09-09T16:52:52;22.99;75.37
67799;SHT30;54596;43.216;27.904;2022-09-09T16:55:18;22.98;75.90
67799;SHT30;54596;43.216;27.904;2022-09-09T16:57:46;22.96;76.13
67799;SHT30;54596;43.216;27.904;2022-09-09T17:00:14;23.02;76.39
67799;SHT30;54596;43.216;27.904;2022-09-09T17:02:42;23.02;76.49
67799;SHT30;54596;43.216;27.904;2022-09-09T17:05:08;23.02;76.75
67799;SHT30;54596;43.216;27.904;2022-09-09T17:07:34;22.96;77.08
67799;SHT30;54596;43.216;27.904;2022-09-09T17:10:01;22.99;77.48
67799;SHT30;54596;43.216;27.904;2022-09-09T17:12:26;22.96;77.79
67799;SHT30;54596;43.216;27.904;2022-09-09T17:14:52;22.95;78.03
67799;SHT30;54596;43.216;27.904;2022-09-09T17:17:17;22.99;77.72
67799;SHT30;54596;43.216;27.904;2022-09-09T17:19:43;22.98;77.69
67799;SHT30;54596;43.216;27.904;2022-09-09T17:22:08;23.02;78.24
67799;SHT30;54596;43.216;27.904;2022-09-09T17:24:34;22.98;78.48
67799;SHT30;54596;43.216;27.904;2022-09-09T17:27:00;22.98;78.74
67799;SHT30;54596;43.216;27.904;2022-09-09T17:29:26;23.00;78.56
67799;SHT30;54596;43.216;27.904;2022-09-09T17:31:52;23.00;78.82
67799;SHT30;54596;43.216;27.904;2022-09-09T17:34:17;23.05;78.91
67799;SHT30;54596;43.216;27.904;2022-09-09T17:36:43;23.06;79.05